sensor_id;sensor_type;location;lat;lon;timestamp;P1;durP1;ratioP1;P2;durP2;ratioP2
82526;SDS011;72188;41.974;21.456;2023-10-08T00:01:18;20.13;;;12.15;;
82526;SDS011;72188;41.974;21.456;2023-10-08T00:03:46;25.95;;;13.52;;
82526;SDS011;72188;41.974;21.456;2023-10-08T00:06:23;24.17;;;11.35;;
82526;SDS011;72188;41.974;21.456;2023-10-08T00:08:49;24.83;;;12.35;;
82526;SDS011;72188;41.974;21.456;2023-10-08T00:11:16;24.80;;;13.20;;
82526;SDS011;72188;41.974;21.456;2023-10-08T00:13:42;28.30;;;12.90;;
82526;SDS011;72188;41.974;21.456;2023-10-08T00:16:09;24.52;;;14.23;;
82526;SDS011;72188;41.974;21.456;2023-10-08T00:18:36;23.70;;;13.05;;
82526;SDS011;72188;41.974;21.456;2023-10-08T00:21:05;21.63;;;12.43;;
82526;SDS011;72188;41.974;21.456;2023-10-08T00:23:37;24.60;;;12.48;;
82526;SDS011;72188;41.974;21.456;2023-10-08T00:26:10;22.65;;;12.48;;
82526;SDS011;72188;41.974;21.456;2023-10-08T00:28:37;21.77;;;11.85;;
82526;SDS011;72188;41.974;21.456;2023-10-08T00:31:05;20.55;;;11.73;;
82526;SDS011;72188;41.974;21.456;2023-10-08T00:33:36;23.20;;;11.43;;
82526;SDS011;72188;41.974;21.456;2023-10-08T00:36:02;26.95;;;11.60;;
82526;SDS011;72188;41.974;21.456;2023-10-08T00:38:42;21.88;;;11.27;;
82526;SDS011;72188;41.974;21.456;2023-10-08T00:41:18;19.13;;;11.32;;
82526;SDS011;72188;41.974;21.456;2023-10-08T00:43:47;20.95;;;11.75;;
82526;SDS011;72188;41.974;21.456;2023-10-08T00:46:13;23.05;;;11.20;;
82526;SDS011;72188;41.974;21.456;2023-10-08T00:48:48;27.13;;;11.75;;
82526;SDS011;72188;41.974;21.456;2023-10-08T00:51:15;19.30;;;10.85;;
82526;SDS011;72188;41.974;21.456;2023-10-08T00:54:01;22.35;;;11.95;;
82526;SDS011;72188;41.974;21.456;2023-10-08T00:56:42;24.13;;;12.63;;
82526;SDS011;72188;41.974;21.456;2023-10-08T00:59:11;22.73;;;11.30;;
82526;SDS011;72188;41.974;21.456;2023-10-08T01:01:41;18.58;;;10.60;;
82526;SDS011;72188;41.974;21.456;2023-10-08T01:04:14;27.95;;;11.85;;
82526;SDS011;72188;41.974;21.456;2023-10-08T01:06:41;19.65;;;10.88;;
82526;SDS011;72188;41.974;21.456;2023-10-08T01:09:07;25.90;;;13.27;;
82526;SDS011;72188;41.974;21.456;2023-10-08T01:11:43;26.38;;;12.57;;
82526;SDS011;72188;41.974;21.456;2023-10-08T01:14:18;24.27;;;12.32;;
82526;SDS011;72188;41.974;21.456;2023-10-08T01:16:49;26.58;;;12.75;;
82526;SDS011;72188;41.974;21.456;2023-10-08T01:19:18;22.27;;;11.70;;
82526;SDS011;72188;41.974;21.456;2023-10-08T01:21:45;21.98;;;13.10;;
82526;SDS011;72188;41.974;21.456;2023-10-08T01:24:12;21.67;;;13.07;;
82526;SDS011;72188;41.974;21.456;2023-10-08T01:26:42;24.05;;;11.77;;
82526;SDS011;72188;41.974;21.456;2023-10-08T01:29:10;24.02;;;13.52;;
82526;SDS011;72188;41.974;21.456;2023-10-08T01:34:10;22.33;;;12.75;;
82526;SDS011;72188;41.974;21.456;2023-10-08T01:36:40;22.30;;;12.35;;
82526;SDS011;72188;41.974;21.456;2023-10-08T01:39:09;24.55;;;12.25;;
82526;SDS011;72188;41.974;21.456;2023-10-08T01:41:40;23.13;;;12.98;;
82526;SDS011;72188;41.974;21.456;2023-10-08T01:44:06;22.67;;;12.80;;
82526;SDS011;72188;41.974;21.456;2023-10-08T01:46:33;23.02;;;13.02;;
82526;SDS011;72188;41.974;21.456;2023-10-08T01:49:00;26.10;;;13.48;;
82526;SDS011;72188;41.974;21.456;2023-10-08T01:51:33;25.30;;;12.80;;
82526;SDS011;72188;41.974;21.456;2023-10-08T01:54:04;23.65;;;12.50;;
82526;SDS011;72188;41.974;21.456;2023-10-08T01:56:37;23.27;;;12.85;;
82526;SDS011;72188;41.974;21.456;2023-10-08T01:59:06;22.45;;;12.73;;
82526;SDS011;72188;41.974;21.456;2023-10-08T02:01:33;27.88;;;12.73;;
82526;SDS011;72188;41.974;21.456;2023-10-08T02:04:00;24.60;;;12.75;;
82526;SDS011;72188;41.974;21.456;2023-10-08T02:06:26;25.40;;;11.98;;
82526;SDS011;72188;41.974;21.456;2023-10-08T02:08:53;19.88;;;12.20;;
82526;SDS011;72188;41.974;21.456;2023-10-08T02:11:19;24.15;;;12.25;;
82526;SDS011;72188;41.974;21.456;2023-10-08T02:13:46;23.15;;;12.38;;
82526;SDS011;72188;41.974;21.456;2023-10-08T02:16:17;21.90;;;13.00;;
82526;SDS011;72188;41.974;21.456;2023-10-08T02:18:44;20.33;;;12.80;;
82526;SDS011;72188;41.974;21.456;2023-10-08T02:21:11;26.17;;;12.32;;
82526;SDS011;72188;41.974;21.456;2023-10-08T02:23:37;24.77;;;12.27;;
82526;SDS011;72188;41.974;21.456;2023-10-08T02:26:03;28.80;;;12.00;;
82526;SDS011;72188;41.974;21.456;2023-10-08T02:28:31;25.23;;;13.45;;
82526;SDS011;72188;41.974;21.456;2023-10-08T02:30:58;23.00;;;12.02;;
82526;SDS011;72188;41.974;21.456;2023-10-08T02:33:25;20.08;;;12.00;;
82526;SDS011;72188;41.974;21.456;2023-10-08T02:35:51;27.27;;;13.68;;
82526;SDS011;72188;41.974;21.456;2023-10-08T02:38:18;19.48;;;12.00;;
82526;SDS011;72188;41.974;21.456;2023-10-08T02:40:46;21.83;;;12.05;;
82526;SDS011;72188;41.974;21.456;2023-10-08T02:43:18;21.98;;;13.45;;
82526;SDS011;72188;41.974;21.456;2023-10-08T02:48:14;20.95;;;12.10;;
82526;SDS011;72188;41.974;21.456;2023-10-08T02:50:40;21.55;;;11.80;;
82526;SDS011;72188;41.974;21.456;2023-10-08T02:53:07;22.55;;;10.93;;
82526;SDS011;72188;41.974;21.456;2023-10-08T02:55:39;18.40;;;11.70;;
82526;SDS011;72188;41.974;21.456;2023-10-08T02:58:12;19.00;;;11.52;;
82526;SDS011;72188;41.974;21.456;2023-10-08T03:00:47;23.67;;;11.77;;
82526;SDS011;72188;41.974;21.456;2023-10-08T03:03:14;21.27;;;13.13;;
82526;SDS011;72188;41.974;21.456;2023-10-08T03:05:51;26.30;;;12.23;;
82526;SDS011;72188;41.974;21.456;2023-10-08T03:08:17;22.60;;;12.73;;
82526;SDS011;72188;41.974;21.456;2023-10-08T03:10:47;19.00;;;12.63;;
82526;SDS011;72188;41.974;21.456;2023-10-08T03:13:15;22.52;;;12.38;;
82526;SDS011;72188;41.974;21.456;2023-10-08T03:15:41;27.98;;;12.20;;
82526;SDS011;72188;41.974;21.456;2023-10-08T03:18:29;22.08;;;12.07;;
82526;SDS011;72188;41.974;21.456;2023-10-08T03:21:05;28.33;;;13.52;;
82526;SDS011;72188;41.974;21.456;2023-10-08T03:23:48;19.23;;;12.25;;
82526;SDS011;72188;41.974;21.456;2023-10-08T03:26:16;24.45;;;11.77;;
82526;SDS011;72188;41.974;21.456;2023-10-08T03:28:58;21.27;;;11.88;;
82526;SDS011;72188;41.974;21.456;2023-10-08T03:31:24;27.35;;;12.48;;
82526;SDS011;72188;41.974;21.456;2023-10-08T03:34:09;19.33;;;12.32;;
82526;SDS011;72188;41.974;21.456;2023-10-08T03:36:40;27.33;;;13.43;;
82526;SDS011;72188;41.974;21.456;2023-10-08T03:39:12;25.63;;;12.50;;
82526;SDS011;72188;41.974;21.456;2023-10-08T03:41:42;20.00;;;11.68;;
82526;SDS011;72188;41.974;21.456;2023-10-08T03:44:17;22.58;;;12.73;;
82526;SDS011;72188;41.974;21.456;2023-10-08T03:46:45;22.85;;;12.35;;
82526;SDS011;72188;41.974;21.456;2023-10-08T03:51:45;21.35;;;11.27;;
82526;SDS011;72188;41.974;21.456;2023-10-08T03:54:11;22.60;;;12.52;;
82526;SDS011;72188;41.974;21.456;2023-10-08T03:56:44;24.13;;;13.10;;
82526;SDS011;72188;41.974;21.456;2023-10-08T03:59:14;18.65;;;13.00;;
82526;SDS011;72188;41.974;21.456;2023-10-08T04:01:45;19.08;;;12.07;;
82526;SDS011;72188;41.974;21.456;2023-10-08T04:04:14;23.48;;;12.77;;
82526;SDS011;72188;41.974;21.456;2023-10-08T04:06:40;22.08;;;13.15;;
82526;SDS011;72188;41.974;21.456;2023-10-08T04:09:14;23.00;;;13.50;;
82526;SDS011;72188;41.974;21.456;2023-10-08T04:11:49;27.13;;;12.60;;
82526;SDS011;72188;41.974;21.456;2023-10-08T04:14:16;23.77;;;13.55;;
82526;SDS011;72188;41.974;21.456;2023-10-08T04:16:42;19.98;;;12.68;;
82526;SDS011;72188;41.974;21.456;2023-10-08T04:19:09;22.48;;;12.13;;
82526;SDS011;72188;41.974;21.456;2023-10-08T04:21:35;20.52;;;12.77;;
82526;SDS011;72188;41.974;21.456;2023-10-08T04:24:02;20.48;;;11.77;;
82526;SDS011;72188;41.974;21.456;2023-10-08T04:26:29;16.45;;;11.65;;
82526;SDS011;72188;41.974;21.456;2023-10-08T04:34:09;22.55;;;11.60;;
82526;SDS011;72188;41.974;21.456;2023-10-08T04:36:45;22.80;;;13.15;;
82526;SDS011;72188;41.974;21.456;2023-10-08T04:39:11;17.92;;;12.50;;
82526;SDS011;72188;41.974;21.456;2023-10-08T04:41:41;22.50;;;12.82;;
82526;SDS011;72188;41.974;21.456;2023-10-08T04:44:10;18.23;;;12.90;;
82526;SDS011;72188;41.974;21.456;2023-10-08T04:46:43;22.90;;;13.80;;
82526;SDS011;72188;41.974;21.456;2023-10-08T04:49:16;27.50;;;13.23;;
82526;SDS011;72188;41.974;21.456;2023-10-08T04:51:54;24.27;;;13.75;;
82526;SDS011;72188;41.974;21.456;2023-10-08T04:54:31;21.33;;;12.48;;
82526;SDS011;72188;41.974;21.456;2023-10-08T04:56:57;21.73;;;13.43;;
82526;SDS011;72188;41.974;21.456;2023-10-08T04:59:25;34.38;;;17.90;;
82526;SDS011;72188;41.974;21.456;2023-10-08T05:01:57;26.42;;;15.23;;
82526;SDS011;72188;41.974;21.456;2023-10-08T05:04:38;25.17;;;14.38;;
82526;SDS011;72188;41.974;21.456;2023-10-08T05:07:23;27.10;;;13.75;;
82526;SDS011;72188;41.974;21.456;2023-10-08T05:09:52;22.92;;;13.00;;
82526;SDS011;72188;41.974;21.456;2023-10-08T05:12:30;24.25;;;14.00;;
82526;SDS011;72188;41.974;21.456;2023-10-08T05:15:02;23.70;;;13.68;;
82526;SDS011;72188;41.974;21.456;2023-10-08T05:17:55;28.05;;;17.70;;
82526;SDS011;72188;41.974;21.456;2023-10-08T05:20:38;31.23;;;20.23;;
82526;SDS011;72188;41.974;21.456;2023-10-08T05:23:13;25.05;;;16.77;;
82526;SDS011;72188;41.974;21.456;2023-10-08T05:26:05;26.60;;;16.45;;
82526;SDS011;72188;41.974;21.456;2023-10-08T05:28:35;35.30;;;17.55;;
82526;SDS011;72188;41.974;21.456;2023-10-08T05:31:11;23.02;;;15.32;;
82526;SDS011;72188;41.974;21.456;2023-10-08T05:33:38;29.60;;;16.70;;
82526;SDS011;72188;41.974;21.456;2023-10-08T05:36:25;30.95;;;19.52;;
82526;SDS011;72188;41.974;21.456;2023-10-08T05:39:10;31.48;;;18.00;;
82526;SDS011;72188;41.974;21.456;2023-10-08T05:41:58;43.70;;;27.23;;
82526;SDS011;72188;41.974;21.456;2023-10-08T05:44:43;26.70;;;15.13;;
82526;SDS011;72188;41.974;21.456;2023-10-08T05:47:28;27.35;;;16.27;;
82526;SDS011;72188;41.974;21.456;2023-10-08T05:49:57;31.15;;;16.27;;
82526;SDS011;72188;41.974;21.456;2023-10-08T05:52:45;26.52;;;14.65;;
82526;SDS011;72188;41.974;21.456;2023-10-08T05:55:32;22.63;;;13.55;;
82526;SDS011;72188;41.974;21.456;2023-10-08T05:58:07;24.15;;;14.57;;
82526;SDS011;72188;41.974;21.456;2023-10-08T06:00:43;24.60;;;14.18;;
82526;SDS011;72188;41.974;21.456;2023-10-08T06:03:16;23.52;;;15.02;;
82526;SDS011;72188;41.974;21.456;2023-10-08T06:06:03;29.60;;;16.45;;
82526;SDS011;72188;41.974;21.456;2023-10-08T06:08:41;26.75;;;15.65;;
82526;SDS011;72188;41.974;21.456;2023-10-08T06:11:20;30.00;;;15.93;;
82526;SDS011;72188;41.974;21.456;2023-10-08T06:14:02;32.20;;;20.13;;
82526;SDS011;72188;41.974;21.456;2023-10-08T06:16:38;37.28;;;22.92;;
82526;SDS011;72188;41.974;21.456;2023-10-08T06:19:10;32.05;;;17.42;;
82526;SDS011;72188;41.974;21.456;2023-10-08T06:21:38;30.80;;;18.80;;
82526;SDS011;72188;41.974;21.456;2023-10-08T06:24:05;23.10;;;15.23;;
82526;SDS011;72188;41.974;21.456;2023-10-08T06:26:37;21.17;;;13.02;;
82526;SDS011;72188;41.974;21.456;2023-10-08T06:29:08;21.30;;;12.52;;
82526;SDS011;72188;41.974;21.456;2023-10-08T06:31:43;24.15;;;11.45;;
82526;SDS011;72188;41.974;21.456;2023-10-08T06:34:15;19.85;;;11.95;;
82526;SDS011;72188;41.974;21.456;2023-10-08T06:36:42;19.90;;;12.40;;
82526;SDS011;72188;41.974;21.456;2023-10-08T06:39:08;20.05;;;12.00;;
82526;SDS011;72188;41.974;21.456;2023-10-08T06:41:38;17.88;;;11.63;;
82526;SDS011;72188;41.974;21.456;2023-10-08T06:44:04;21.73;;;11.60;;
82526;SDS011;72188;41.974;21.456;2023-10-08T06:46:39;21.90;;;11.68;;
82526;SDS011;72188;41.974;21.456;2023-10-08T06:49:06;19.05;;;11.55;;
82526;SDS011;72188;41.974;21.456;2023-10-08T06:51:36;17.27;;;10.52;;
82526;SDS011;72188;41.974;21.456;2023-10-08T06:54:03;17.23;;;11.48;;
82526;SDS011;72188;41.974;21.456;2023-10-08T06:56:32;21.80;;;11.93;;
82526;SDS011;72188;41.974;21.456;2023-10-08T06:58:58;20.65;;;12.05;;
82526;SDS011;72188;41.974;21.456;2023-10-08T07:01:26;18.50;;;11.80;;
82526;SDS011;72188;41.974;21.456;2023-10-08T07:04:04;21.33;;;11.75;;
82526;SDS011;72188;41.974;21.456;2023-10-08T07:06:31;22.75;;;12.65;;
82526;SDS011;72188;41.974;21.456;2023-10-08T07:08:59;24.08;;;12.35;;
82526;SDS011;72188;41.974;21.456;2023-10-08T07:11:30;21.83;;;12.85;;
82526;SDS011;72188;41.974;21.456;2023-10-08T07:14:00;18.92;;;12.23;;
82526;SDS011;72188;41.974;21.456;2023-10-08T07:16:26;21.40;;;13.20;;
82526;SDS011;72188;41.974;21.456;2023-10-08T07:21:26;17.17;;;11.68;;
82526;SDS011;72188;41.974;21.456;2023-10-08T07:24:04;20.52;;;13.50;;
82526;SDS011;72188;41.974;21.456;2023-10-08T07:26:35;18.38;;;12.80;;
82526;SDS011;72188;41.974;21.456;2023-10-08T07:29:01;21.58;;;13.35;;
82526;SDS011;72188;41.974;21.456;2023-10-08T07:31:33;22.58;;;13.45;;
82526;SDS011;72188;41.974;21.456;2023-10-08T07:34:01;18.55;;;12.65;;
82526;SDS011;72188;41.974;21.456;2023-10-08T07:37:03;20.13;;;12.40;;
82526;SDS011;72188;41.974;21.456;2023-10-08T07:39:30;20.58;;;12.55;;
82526;SDS011;72188;41.974;21.456;2023-10-08T07:41:57;17.50;;;12.98;;
82526;SDS011;72188;41.974;21.456;2023-10-08T07:44:24;19.95;;;12.88;;
82526;SDS011;72188;41.974;21.456;2023-10-08T07:51:43;20.35;;;12.90;;
82526;SDS011;72188;41.974;21.456;2023-10-08T07:54:29;18.42;;;12.52;;
82526;SDS011;72188;41.974;21.456;2023-10-08T07:56:59;18.27;;;12.05;;
82526;SDS011;72188;41.974;21.456;2023-10-08T07:59:40;22.65;;;13.20;;
82526;SDS011;72188;41.974;21.456;2023-10-08T08:02:07;20.30;;;12.13;;
82526;SDS011;72188;41.974;21.456;2023-10-08T08:04:39;21.98;;;13.20;;
82526;SDS011;72188;41.974;21.456;2023-10-08T08:07:07;22.05;;;12.70;;
82526;SDS011;72188;41.974;21.456;2023-10-08T08:12:09;16.73;;;11.95;;
82526;SDS011;72188;41.974;21.456;2023-10-08T08:14:37;20.20;;;12.90;;
82526;SDS011;72188;41.974;21.456;2023-10-08T08:17:06;17.83;;;11.63;;
82526;SDS011;72188;41.974;21.456;2023-10-08T08:19:39;19.58;;;12.52;;
82526;SDS011;72188;41.974;21.456;2023-10-08T08:24:31;17.13;;;12.55;;
82526;SDS011;72188;41.974;21.456;2023-10-08T08:27:01;22.55;;;14.30;;
82526;SDS011;72188;41.974;21.456;2023-10-08T08:29:36;15.98;;;11.77;;
82526;SDS011;72188;41.974;21.456;2023-10-08T08:32:11;22.92;;;14.00;;
82526;SDS011;72188;41.974;21.456;2023-10-08T08:34:41;23.40;;;13.10;;
82526;SDS011;72188;41.974;21.456;2023-10-08T08:37:09;16.65;;;11.73;;
82526;SDS011;72188;41.974;21.456;2023-10-08T08:39:36;18.65;;;12.45;;
82526;SDS011;72188;41.974;21.456;2023-10-08T08:42:03;22.15;;;13.27;;
82526;SDS011;72188;41.974;21.456;2023-10-08T08:44:33;18.75;;;12.68;;
82526;SDS011;72188;41.974;21.456;2023-10-08T08:47:04;19.75;;;12.90;;
82526;SDS011;72188;41.974;21.456;2023-10-08T08:49:34;18.38;;;12.30;;
82526;SDS011;72188;41.974;21.456;2023-10-08T08:52:02;17.63;;;12.77;;
82526;SDS011;72188;41.974;21.456;2023-10-08T08:56:58;21.92;;;14.40;;
82526;SDS011;72188;41.974;21.456;2023-10-08T08:59:25;16.83;;;12.57;;
82526;SDS011;72188;41.974;21.456;2023-10-08T09:01:55;18.70;;;13.73;;
82526;SDS011;72188;41.974;21.456;2023-10-08T09:04:29;20.50;;;12.88;;
82526;SDS011;72188;41.974;21.456;2023-10-08T09:06:56;20.10;;;12.80;;
82526;SDS011;72188;41.974;21.456;2023-10-08T09:09:22;16.30;;;11.18;;
82526;SDS011;72188;41.974;21.456;2023-10-08T09:11:50;16.95;;;11.57;;
82526;SDS011;72188;41.974;21.456;2023-10-08T09:14:20;18.60;;;10.93;;
82526;SDS011;72188;41.974;21.456;2023-10-08T09:16:55;14.60;;;10.48;;
82526;SDS011;72188;41.974;21.456;2023-10-08T09:19:22;16.70;;;10.35;;
82526;SDS011;72188;41.974;21.456;2023-10-08T09:21:59;14.32;;;10.23;;
82526;SDS011;72188;41.974;21.456;2023-10-08T09:24:25;14.85;;;10.55;;
82526;SDS011;72188;41.974;21.456;2023-10-08T09:26:54;17.77;;;10.55;;
82526;SDS011;72188;41.974;21.456;2023-10-08T09:29:24;17.65;;;10.63;;
82526;SDS011;72188;41.974;21.456;2023-10-08T09:31:58;17.42;;;11.75;;
82526;SDS011;72188;41.974;21.456;2023-10-08T09:34:29;20.00;;;11.07;;
82526;SDS011;72188;41.974;21.456;2023-10-08T09:36:56;20.42;;;11.88;;
82526;SDS011;72188;41.974;21.456;2023-10-08T09:39:22;16.83;;;10.85;;
82526;SDS011;72188;41.974;21.456;2023-10-08T09:41:55;20.85;;;11.60;;
82526;SDS011;72188;41.974;21.456;2023-10-08T09:46:57;19.35;;;11.85;;
82526;SDS011;72188;41.974;21.456;2023-10-08T09:49:33;15.48;;;10.50;;
82526;SDS011;72188;41.974;21.456;2023-10-08T09:52:04;14.50;;;10.63;;
82526;SDS011;72188;41.974;21.456;2023-10-08T09:54:56;17.42;;;12.23;;
82526;SDS011;72188;41.974;21.456;2023-10-08T09:57:19;20.45;;;11.90;;
82526;SDS011;72188;41.974;21.456;2023-10-08T09:59:46;16.23;;;11.40;;
82526;SDS011;72188;41.974;21.456;2023-10-08T10:02:14;20.10;;;11.98;;
82526;SDS011;72188;41.974;21.456;2023-10-08T10:04:43;21.52;;;11.35;;
82526;SDS011;72188;41.974;21.456;2023-10-08T10:07:13;19.33;;;11.75;;
82526;SDS011;72188;41.974;21.456;2023-10-08T10:09:45;15.38;;;10.80;;
82526;SDS011;72188;41.974;21.456;2023-10-08T10:12:12;22.20;;;11.40;;
82526;SDS011;72188;41.974;21.456;2023-10-08T10:14:42;16.40;;;12.10;;
82526;SDS011;72188;41.974;21.456;2023-10-08T10:17:09;17.45;;;11.15;;
82526;SDS011;72188;41.974;21.456;2023-10-08T10:19:36;21.35;;;10.60;;
82526;SDS011;72188;41.974;21.456;2023-10-08T10:22:03;19.65;;;11.13;;
82526;SDS011;72188;41.974;21.456;2023-10-08T10:24:35;18.88;;;12.85;;
82526;SDS011;72188;41.974;21.456;2023-10-08T10:27:14;20.05;;;12.10;;
82526;SDS011;72188;41.974;21.456;2023-10-08T10:29:41;17.00;;;11.30;;
82526;SDS011;72188;41.974;21.456;2023-10-08T10:32:10;16.73;;;11.45;;
82526;SDS011;72188;41.974;21.456;2023-10-08T10:34:38;17.83;;;10.18;;
82526;SDS011;72188;41.974;21.456;2023-10-08T10:37:04;15.88;;;10.68;;
82526;SDS011;72188;41.974;21.456;2023-10-08T10:39:35;13.88;;;7.85;;
82526;SDS011;72188;41.974;21.456;2023-10-08T10:42:05;16.02;;;9.75;;
82526;SDS011;72188;41.974;21.456;2023-10-08T10:44:32;18.65;;;10.93;;
82526;SDS011;72188;41.974;21.456;2023-10-08T10:47:01;17.02;;;10.23;;
82526;SDS011;72188;41.974;21.456;2023-10-08T10:49:40;18.38;;;10.02;;
82526;SDS011;72188;41.974;21.456;2023-10-08T10:52:33;15.23;;;10.55;;
82526;SDS011;72188;41.974;21.456;2023-10-08T10:55:18;15.07;;;9.82;;
82526;SDS011;72188;41.974;21.456;2023-10-08T10:57:51;14.88;;;10.02;;
82526;SDS011;72188;41.974;21.456;2023-10-08T11:00:24;16.80;;;9.30;;
82526;SDS011;72188;41.974;21.456;2023-10-08T11:02:57;16.15;;;9.75;;
82526;SDS011;72188;41.974;21.456;2023-10-08T11:05:41;14.57;;;9.70;;
82526;SDS011;72188;41.974;21.456;2023-10-08T11:08:12;15.98;;;9.07;;
82526;SDS011;72188;41.974;21.456;2023-10-08T11:10:40;18.10;;;9.55;;
82526;SDS011;72188;41.974;21.456;2023-10-08T11:13:13;16.02;;;9.57;;
82526;SDS011;72188;41.974;21.456;2023-10-08T11:15:43;14.40;;;8.88;;
82526;SDS011;72188;41.974;21.456;2023-10-08T11:18:14;13.18;;;9.07;;
82526;SDS011;72188;41.974;21.456;2023-10-08T11:20:43;17.50;;;8.77;;
82526;SDS011;72188;41.974;21.456;2023-10-08T11:25:58;14.43;;;8.43;;
82526;SDS011;72188;41.974;21.456;2023-10-08T11:28:28;12.20;;;7.63;;
82526;SDS011;72188;41.974;21.456;2023-10-08T11:30:54;11.27;;;8.05;;
82526;SDS011;72188;41.974;21.456;2023-10-08T11:33:24;13.65;;;8.43;;
82526;SDS011;72188;41.974;21.456;2023-10-08T11:36:01;12.35;;;7.90;;
82526;SDS011;72188;41.974;21.456;2023-10-08T11:38:37;13.18;;;8.63;;
82526;SDS011;72188;41.974;21.456;2023-10-08T11:41:12;12.43;;;7.47;;
82526;SDS011;72188;41.974;21.456;2023-10-08T11:43:46;11.35;;;7.20;;
82526;SDS011;72188;41.974;21.456;2023-10-08T11:46:13;12.15;;;7.25;;
82526;SDS011;72188;41.974;21.456;2023-10-08T11:48:43;13.35;;;7.75;;
82526;SDS011;72188;41.974;21.456;2023-10-08T11:51:12;21.10;;;10.48;;
82526;SDS011;72188;41.974;21.456;2023-10-08T11:53:42;11.50;;;7.20;;
82526;SDS011;72188;41.974;21.456;2023-10-08T11:56:09;15.30;;;7.97;;
82526;SDS011;72188;41.974;21.456;2023-10-08T11:58:38;10.60;;;6.57;;
82526;SDS011;72188;41.974;21.456;2023-10-08T12:01:04;10.48;;;7.50;;
82526;SDS011;72188;41.974;21.456;2023-10-08T12:03:30;10.95;;;6.70;;
82526;SDS011;72188;41.974;21.456;2023-10-08T12:06:00;11.65;;;7.05;;
82526;SDS011;72188;41.974;21.456;2023-10-08T12:08:26;9.70;;;6.45;;
82526;SDS011;72188;41.974;21.456;2023-10-08T12:10:52;12.48;;;7.22;;
82526;SDS011;72188;41.974;21.456;2023-10-08T12:13:25;13.82;;;6.10;;
82526;SDS011;72188;41.974;21.456;2023-10-08T12:15:53;9.35;;;5.53;;
82526;SDS011;72188;41.974;21.456;2023-10-08T12:18:37;13.07;;;7.50;;
82526;SDS011;72188;41.974;21.456;2023-10-08T12:21:08;13.43;;;6.18;;
82526;SDS011;72188;41.974;21.456;2023-10-08T12:23:40;14.40;;;7.35;;
82526;SDS011;72188;41.974;21.456;2023-10-08T12:26:08;16.45;;;7.28;;
82526;SDS011;72188;41.974;21.456;2023-10-08T12:28:35;13.93;;;6.20;;
82526;SDS011;72188;41.974;21.456;2023-10-08T12:31:01;12.45;;;6.75;;
82526;SDS011;72188;41.974;21.456;2023-10-08T12:33:29;11.73;;;5.85;;
82526;SDS011;72188;41.974;21.456;2023-10-08T12:35:56;16.90;;;7.78;;
82526;SDS011;72188;41.974;21.456;2023-10-08T12:38:23;18.92;;;9.07;;
82526;SDS011;72188;41.974;21.456;2023-10-08T12:40:52;15.55;;;5.35;;
82526;SDS011;72188;41.974;21.456;2023-10-08T12:43:19;14.80;;;4.40;;
82526;SDS011;72188;41.974;21.456;2023-10-08T12:45:46;9.25;;;3.78;;
82526;SDS011;72188;41.974;21.456;2023-10-08T12:48:17;16.38;;;5.05;;
82526;SDS011;72188;41.974;21.456;2023-10-08T12:50:43;17.00;;;4.45;;
82526;SDS011;72188;41.974;21.456;2023-10-08T12:53:10;14.43;;;4.47;;
82526;SDS011;72188;41.974;21.456;2023-10-08T12:55:39;10.50;;;2.92;;
82526;SDS011;72188;41.974;21.456;2023-10-08T12:58:06;13.25;;;4.75;;
82526;SDS011;72188;41.974;21.456;2023-10-08T13:00:38;10.80;;;4.72;;
82526;SDS011;72188;41.974;21.456;2023-10-08T13:03:08;15.23;;;5.20;;
82526;SDS011;72188;41.974;21.456;2023-10-08T13:05:43;12.60;;;4.53;;
82526;SDS011;72188;41.974;21.456;2023-10-08T13:08:10;14.63;;;5.72;;
82526;SDS011;72188;41.974;21.456;2023-10-08T13:10:39;11.77;;;5.07;;
82526;SDS011;72188;41.974;21.456;2023-10-08T13:13:09;11.13;;;4.15;;
82526;SDS011;72188;41.974;21.456;2023-10-08T13:15:36;11.00;;;3.95;;
82526;SDS011;72188;41.974;21.456;2023-10-08T13:18:02;7.90;;;2.97;;
82526;SDS011;72188;41.974;21.456;2023-10-08T13:20:29;17.48;;;6.00;;
82526;SDS011;72188;41.974;21.456;2023-10-08T13:23:02;14.20;;;4.43;;
82526;SDS011;72188;41.974;21.456;2023-10-08T13:25:29;8.27;;;3.78;;
82526;SDS011;72188;41.974;21.456;2023-10-08T13:27:58;10.77;;;4.45;;
82526;SDS011;72188;41.974;21.456;2023-10-08T13:30:25;16.15;;;4.38;;
82526;SDS011;72188;41.974;21.456;2023-10-08T13:32:52;5.68;;;2.67;;
82526;SDS011;72188;41.974;21.456;2023-10-08T13:35:18;6.07;;;3.58;;
82526;SDS011;72188;41.974;21.456;2023-10-08T13:37:45;15.25;;;5.35;;
82526;SDS011;72188;41.974;21.456;2023-10-08T13:40:13;8.80;;;4.00;;
82526;SDS011;72188;41.974;21.456;2023-10-08T13:42:41;18.35;;;4.85;;
82526;SDS011;72188;41.974;21.456;2023-10-08T13:45:08;7.57;;;3.22;;
82526;SDS011;72188;41.974;21.456;2023-10-08T13:47:34;9.40;;;4.30;;
82526;SDS011;72188;41.974;21.456;2023-10-08T13:50:04;12.02;;;4.28;;
82526;SDS011;72188;41.974;21.456;2023-10-08T13:52:35;8.15;;;3.85;;
82526;SDS011;72188;41.974;21.456;2023-10-08T13:55:05;13.77;;;5.90;;
82526;SDS011;72188;41.974;21.456;2023-10-08T13:57:31;9.02;;;4.35;;
82526;SDS011;72188;41.974;21.456;2023-10-08T13:59:58;11.90;;;4.38;;
82526;SDS011;72188;41.974;21.456;2023-10-08T14:02:25;10.23;;;4.30;;
82526;SDS011;72188;41.974;21.456;2023-10-08T14:04:51;13.07;;;4.72;;
82526;SDS011;72188;41.974;21.456;2023-10-08T14:07:18;7.47;;;3.75;;
82526;SDS011;72188;41.974;21.456;2023-10-08T14:09:46;7.60;;;3.65;;
82526;SDS011;72188;41.974;21.456;2023-10-08T14:12:12;12.90;;;5.18;;
82526;SDS011;72188;41.974;21.456;2023-10-08T14:14:40;12.85;;;5.30;;
82526;SDS011;72188;41.974;21.456;2023-10-08T14:17:09;17.45;;;4.88;;
82526;SDS011;72188;41.974;21.456;2023-10-08T14:19:40;16.15;;;5.40;;
82526;SDS011;72188;41.974;21.456;2023-10-08T14:22:16;12.18;;;4.45;;
82526;SDS011;72188;41.974;21.456;2023-10-08T14:24:47;9.93;;;4.13;;
82526;SDS011;72188;41.974;21.456;2023-10-08T14:27:24;10.90;;;4.72;;
82526;SDS011;72188;41.974;21.456;2023-10-08T14:29:56;13.60;;;5.25;;
82526;SDS011;72188;41.974;21.456;2023-10-08T14:32:26;13.88;;;5.38;;
82526;SDS011;72188;41.974;21.456;2023-10-08T14:34:52;9.50;;;4.35;;
82526;SDS011;72188;41.974;21.456;2023-10-08T14:37:37;15.32;;;5.35;;
82526;SDS011;72188;41.974;21.456;2023-10-08T14:40:21;12.73;;;4.80;;
82526;SDS011;72188;41.974;21.456;2023-10-08T14:43:06;9.38;;;4.82;;
82526;SDS011;72188;41.974;21.456;2023-10-08T14:45:36;15.38;;;5.55;;
82526;SDS011;72188;41.974;21.456;2023-10-08T14:48:04;11.45;;;4.95;;
82526;SDS011;72188;41.974;21.456;2023-10-08T14:50:36;13.52;;;5.50;;
82526;SDS011;72188;41.974;21.456;2023-10-08T14:53:04;13.60;;;5.65;;
82526;SDS011;72188;41.974;21.456;2023-10-08T14:55:30;12.05;;;4.63;;
82526;SDS011;72188;41.974;21.456;2023-10-08T14:58:00;26.30;;;9.02;;
82526;SDS011;72188;41.974;21.456;2023-10-08T15:00:32;15.02;;;5.30;;
82526;SDS011;72188;41.974;21.456;2023-10-08T15:03:01;10.20;;;4.75;;
82526;SDS011;72188;41.974;21.456;2023-10-08T15:05:30;14.18;;;4.90;;
82526;SDS011;72188;41.974;21.456;2023-10-08T15:07:57;9.95;;;4.78;;